Time;durP1;ratioP1;P1;durP2;ratioP2;P2;SDS_P1;SDS_P2;PMS_P1;PMS_P2;Temp;Humidity;BMP_temperature;BMP_pressure;BME280_temperature;BME280_humidity;BME280_pressure;Samples;Min_cycle;Max_cycle;Signal;HPM_P1;HPM_P2
2021/08/29 00:02:06;;;;;;;3.40;1.60;;;;;;;20.87;57.54;102053.03;5033379;28;20022;-62
2021/08/29 00:04:32;;;;;;;4.47;1.90;;;;;;;20.94;57.56;102066.66;5033591;28;20318;-62
2021/08/29 00:06:57;;;;;;;4.60;1.77;;;;;;;20.93;57.47;102065.78;5031962;28;20025;-63
2021/08/29 00:09:22;;;;;;;5.03;1.87;;;;;;;20.91;57.53;102057.13;5033237;28;20377;-63
2021/08/29 00:11:48;;;;;;;4.68;1.73;;;;;;;20.93;57.70;102057.84;5032956;28;20266;-63
2021/08/29 00:14:13;;;;;;;4.30;1.73;;;;;;;20.88;57.40;102049.41;5032401;28;20053;-63
2021/08/29 00:16:38;;;;;;;4.13;1.95;;;;;;;20.94;57.54;102059.56;5033235;28;20057;-63
2021/08/29 00:19:09;;;;;;;5.20;1.80;;;;;;;20.93;57.78;102059.66;5032770;28;20028;-62
2021/08/29 00:21:34;;;;;;;4.97;1.90;;;;;;;20.92;57.73;102052.66;5032384;28;20328;-62
2021/08/29 00:24:03;;;;;;;4.35;1.90;;;;;;;20.91;57.49;102053.66;5032556;28;20022;-63
2021/08/29 00:26:28;;;;;;;4.30;1.70;;;;;;;20.89;57.51;102048.47;5032853;28;20034;-63
2021/08/29 00:28:53;;;;;;;5.15;2.45;;;;;;;20.85;57.62;102044.34;5031836;28;20029;-64
2021/08/29 00:31:19;;;;;;;3.97;1.80;;;;;;;20.91;57.81;102053.66;5033027;28;20401;-64
2021/08/29 00:33:44;;;;;;;5.30;1.70;;;;;;;20.89;57.87;102051.09;5032686;28;20028;-63
2021/08/29 00:36:09;;;;;;;3.47;1.73;;;;;;;20.89;57.68;102051.09;5032550;28;20037;-63
2021/08/29 00:38:34;;;;;;;4.72;1.80;;;;;;;20.89;57.79;102050.28;5032920;28;20040;-63
2021/08/29 00:41:02;;;;;;;3.63;1.85;;;;;;;20.84;57.69;102040.84;5031742;28;20389;-64
2021/08/29 00:43:28;;;;;;;4.93;1.80;;;;;;;20.88;57.81;102044.09;5032608;28;20539;-63
2021/08/29 00:45:53;;;;;;;4.07;1.77;;;;;;;20.88;57.80;102046.75;5032469;28;20033;-64
2021/08/29 00:48:19;;;;;;;4.18;1.77;;;;;;;20.84;57.70;102038.19;5031883;28;20033;-63
2021/08/29 00:50:46;;;;;;;3.63;1.70;;;;;;;20.88;57.74;102040.63;5032233;28;20025;-63
2021/08/29 00:53:17;;;;;;;4.53;1.90;;;;;;;20.87;57.88;102033.63;5032395;28;20046;-63
2021/08/29 00:55:43;;;;;;;3.85;1.63;;;;;;;20.86;58.01;102038.09;5031684;28;20100;-63
2021/08/29 00:58:08;;;;;;;4.22;1.80;;;;;;;20.87;57.76;102038.91;5032541;28;20517;-63
2021/08/29 01:00:36;;;;;;;4.43;1.88;;;;;;;20.85;57.63;102041.69;5032425;28;20025;-63
2021/08/29 01:03:07;;;;;;;4.10;1.65;;;;;;;20.85;57.90;102036.38;5031408;28;20045;-63
2021/08/29 01:05:44;;;;;;;3.80;1.88;;;;;;;20.84;57.64;102040.84;5032475;28;20034;-63
2021/08/29 01:08:16;;;;;;;3.50;1.80;;;;;;;20.86;57.88;102045.19;5032350;28;20033;-63
2021/08/29 01:10:46;;;;;;;5.45;2.08;;;;;;;20.85;57.91;102044.34;5031789;28;20021;-63
2021/08/29 01:13:32;;;;;;;4.00;1.63;;;;;;;20.85;57.69;102039.03;5032421;28;20022;-63
2021/08/29 01:16:04;;;;;;;4.38;1.88;;;;;;;20.83;57.78;102039.16;5032042;28;20022;-64
2021/08/29 01:18:30;;;;;;;3.35;1.63;;;;;;;20.83;57.80;102035.66;5031266;28;20048;-63
2021/08/29 01:21:07;;;;;;;3.33;1.42;;;;;;;20.83;57.92;102038.31;5031813;28;20480;-63
2021/08/29 01:23:35;;;;;;;3.88;1.83;;;;;;;20.83;57.74;102039.16;5031539;28;20030;-63
2021/08/29 01:26:05;;;;;;;3.63;1.50;;;;;;;20.83;57.73;102038.31;5031862;28;20052;-62
2021/08/29 01:29:03;;;;;;;5.00;1.75;;;;;;;20.80;57.96;102034.06;5032226;28;20021;-63
2021/08/29 01:31:31;;;;;;;3.67;1.65;;;;;;;20.82;57.97;102031.31;5031546;28;20416;-63
2021/08/29 01:34:01;;;;;;;3.75;1.70;;;;;;;20.83;57.91;102035.66;5031824;28;20032;-64
2021/08/29 01:36:31;;;;;;;4.63;1.90;;;;;;;20.80;58.00;102027.94;5031931;28;20090;-64
2021/08/29 01:38:59;;;;;;;4.38;1.80;;;;;;;20.81;57.79;102032.28;5031009;28;20121;-64
2021/08/29 01:41:26;;;;;;;3.58;1.48;;;;;;;20.81;57.59;102029.63;5031940;28;20028;-63
2021/08/29 01:43:51;;;;;;;4.38;1.65;;;;;;;20.81;57.80;102025.16;5031547;28;20025;-64
2021/08/29 01:46:18;;;;;;;4.18;1.75;;;;;;;20.80;57.79;102028.78;5031320;28;20409;-62
2021/08/29 01:48:45;;;;;;;4.00;1.65;;;;;;;20.80;57.75;102026.13;5031629;28;20155;-63
2021/08/29 01:51:10;;;;;;;4.50;1.67;;;;;;;20.80;57.93;102022.63;5032077;28;20029;-62
2021/08/29 01:53:37;;;;;;;4.43;1.90;;;;;;;20.78;57.88;102021.91;5031047;28;20049;-63
2021/08/29 01:56:06;;;;;;;4.63;1.92;;;;;;;20.79;58.01;102024.44;5031420;28;20211;-63
2021/08/29 01:58:32;;;;;;;5.10;2.13;;;;;;;20.78;57.75;102017.44;5031150;28;20026;-65
2021/08/29 02:00:59;;;;;;;3.80;1.63;;;;;;;20.80;57.75;102027.94;5031715;28;20025;-64
2021/08/29 02:03:26;;;;;;;3.83;1.77;;;;;;;20.74;57.96;102017.78;5031703;28;20535;-63
2021/08/29 02:05:56;;;;;;;5.00;1.90;;;;;;;20.78;57.78;102028.03;5030449;28;20457;-64
2021/08/29 02:08:24;;;;;;;5.00;1.63;;;;;;;20.78;57.87;102036.00;5031727;28;20021;-63
2021/08/29 02:10:52;;;;;;;4.57;1.67;;;;;;;20.77;57.96;102028.16;5031340;28;20104;-64
2021/08/29 02:13:22;;;;;;;4.43;1.80;;;;;;;20.78;57.79;102032.50;5030897;28;20470;-63
2021/08/29 02:15:59;;;;;;;3.60;1.40;;;;;;;20.78;57.89;102036.00;5031202;28;20454;-63
2021/08/29 02:18:28;;;;;;;3.85;1.75;;;;;;;20.77;58.13;102034.28;5031818;28;20108;-63
2021/08/29 02:20:54;;;;;;;3.90;1.80;;;;;;;20.76;57.75;102031.75;5030638;28;20025;-63
2021/08/29 02:23:21;;;;;;;4.53;1.70;;;;;;;20.77;57.76;102031.66;5031379;28;20036;-63
2021/08/29 02:25:51;;;;;;;3.60;1.70;;;;;;;20.77;58.11;102033.47;5031285;28;20032;-63
2021/08/29 02:28:16;;;;;;;4.20;1.60;;;;;;;20.76;57.84;102027.31;5030705;28;20393;-63
2021/08/29 02:30:42;;;;;;;4.68;1.90;;;;;;;20.77;57.93;102033.47;5034821;28;20029;-64
2021/08/29 02:33:12;;;;;;;4.00;1.63;;;;;;;20.73;58.18;102026.69;5035020;28;20021;-64
2021/08/29 02:35:41;;;;;;;3.50;1.70;;;;;;;20.75;57.95;102024.78;5034237;28;20025;-63
2021/08/29 02:38:07;;;;;;;3.88;1.80;;;;;;;20.76;57.87;102031.75;5034885;28;20034;-63
2021/08/29 02:40:42;;;;;;;3.90;1.70;;;;;;;20.76;58.04;102034.41;5034268;28;20531;-63
2021/08/29 02:43:12;;;;;;;4.45;1.88;;;;;;;20.75;57.99;102035.38;5034868;28;20371;-63
2021/08/29 02:45:42;;;;;;;3.50;1.50;;;;;;;20.75;57.90;102024.78;5034713;28;20116;-63
2021/08/29 02:48:08;;;;;;;3.60;1.52;;;;;;;20.75;57.97;102028.28;5033704;28;20036;-62
2021/08/29 02:50:33;;;;;;;5.15;1.88;;;;;;;20.74;58.07;102023.09;5034958;28;20021;-64
2021/08/29 02:53:02;;;;;;;3.78;1.65;;;;;;;20.72;57.92;102022.38;5034189;28;20112;-63
2021/08/29 02:55:30;;;;;;;3.90;1.88;;;;;;;20.74;58.11;102023.09;5033857;28;20484;-63
2021/08/29 02:58:01;;;;;;;3.70;1.75;;;;;;;20.74;58.03;102023.09;5034516;28;20017;-63
2021/08/29 03:00:27;;;;;;;4.22;1.75;;;;;;;20.73;57.79;102016.97;5034781;28;20091;-63
2021/08/29 03:02:52;;;;;;;3.22;1.52;;;;;;;20.73;58.13;102013.44;5033608;28;20029;-63
2021/08/29 03:05:18;;;;;;;4.30;1.80;;;;;;;20.70;57.87;102011.03;5034638;28;20033;-63
2021/08/29 03:07:43;;;;;;;3.42;1.65;;;;;;;20.69;58.13;102010.19;5034678;28;20021;-63
2021/08/29 03:10:09;;;;;;;3.90;1.55;;;;;;;20.73;57.83;102016.97;5033792;28;20025;-62
2021/08/29 03:12:35;;;;;;;3.97;1.55;;;;;;;20.72;57.85;102009.13;5034356;28;20072;-62
2021/08/29 03:15:00;;;;;;;4.13;1.70;;;;;;;20.72;58.14;102017.91;5034098;28;20485;-63
2021/08/29 03:17:26;;;;;;;4.47;1.70;;;;;;;20.71;58.16;102007.41;5033553;28;20493;-63
2021/08/29 03:19:51;;;;;;;3.30;1.50;;;;;;;20.69;58.14;101994.28;5034295;28;20079;-63
2021/08/29 03:22:17;;;;;;;4.70;2.00;;;;;;;20.72;58.05;102012.59;5034404;28;20424;-64
2021/08/29 03:24:43;;;;;;;3.45;1.67;;;;;;;20.71;58.05;102012.72;5033462;28;20477;-63
2021/08/29 03:27:13;;;;;;;4.03;1.80;;;;;;;20.71;58.23;102018.00;5034205;28;20032;-63
2021/08/29 03:29:38;;;;;;;3.90;1.70;;;;;;;20.66;58.10;102007.75;5033970;28;20513;-62
2021/08/29 03:32:04;;;;;;;3.63;1.80;;;;;;;20.71;57.88;102010.94;5033237;28;20037;-63
2021/08/29 03:34:34;;;;;;;5.30;1.55;;;;;;;20.71;57.97;102005.63;5034324;28;20051;-63
2021/08/29 03:37:01;;;;;;;4.40;1.80;;;;;;;20.70;58.13;102003.09;5033180;28;20036;-63
2021/08/29 03:39:30;;;;;;;3.47;1.50;;;;;;;20.70;58.06;101995.16;5033892;28;20534;-63
2021/08/29 03:41:58;;;;;;;3.63;1.45;;;;;;;20.71;57.89;102002.13;5032571;28;20026;-63
2021/08/29 03:44:26;;;;;;;4.35;2.00;;;;;;;20.70;57.87;101996.00;5032925;28;20025;-63
2021/08/29 03:46:55;;;;;;;3.45;1.50;;;;;;;20.69;58.16;101996.94;5033704;28;20060;-63
2021/08/29 03:49:20;;;;;;;4.95;1.52;;;;;;;20.68;58.21;101995.28;5033652;28;20473;-63
2021/08/29 03:51:46;;;;;;;4.88;1.50;;;;;;;20.70;58.27;101998.63;5032320;28;20099;-63
2021/08/29 03:54:13;;;;;;;4.30;1.80;;;;;;;20.69;58.14;101998.75;5033653;28;20033;-64
2021/08/29 03:56:39;;;;;;;3.28;1.48;;;;;;;20.69;58.18;101990.81;5033585;28;20432;-63
2021/08/29 03:59:05;;;;;;;3.70;1.60;;;;;;;20.68;57.96;101994.41;5032382;28;20026;-62
2021/08/29 04:01:31;;;;;;;3.47;1.70;;;;;;;20.63;58.00;101984.13;5033677;28;20032;-63
2021/08/29 04:03:58;;;;;;;3.55;1.50;;;;;;;20.68;58.11;101991.75;5033308;28;20032;-63
2021/08/29 04:06:26;;;;;;;4.38;1.80;;;;;;;20.68;58.14;101995.28;5032715;28;20025;-63
2021/08/29 04:08:54;;;;;;;3.90;1.70;;;;;;;20.67;57.92;101993.56;5033092;28;20088;-63
2021/08/29 04:11:28;;;;;;;3.80;1.60;;;;;;;20.68;57.87;101992.63;5033269;28;20030;-63
2021/08/29 04:13:54;;;;;;;4.13;1.90;;;;;;;20.68;58.13;101989.09;5032485;28;20021;-63
2021/08/29 04:16:20;;;;;;;3.60;1.60;;;;;;;20.67;58.08;101990.91;5033274;28;20025;-63
2021/08/29 04:18:47;;;;;;;3.47;1.55;;;;;;;20.64;58.17;101989.31;5032923;28;20030;-63
2021/08/29 04:21:17;;;;;;;3.58;1.73;;;;;;;20.67;58.32;101992.72;5032620;28;20087;-62
2021/08/29 04:23:43;;;;;;;2.55;1.23;;;;;;;20.62;57.91;101975.34;5033151;28;20553;-63
2021/08/29 04:26:09;;;;;;;4.07;1.73;;;;;;;20.67;58.03;101976.84;5032054;28;20116;-63
2021/08/29 04:28:36;;;;;;;3.72;1.60;;;;;;;20.64;58.16;101981.38;5032900;28;20028;-64
2021/08/29 04:31:07;;;;;;;3.67;1.77;;;;;;;20.62;58.33;101971.84;5032474;28;20522;-64
2021/08/29 04:33:32;;;;;;;3.63;1.70;;;;;;;20.64;57.99;101983.19;5032181;28;20072;-63
2021/08/29 04:35:57;;;;;;;4.70;1.90;;;;;;;20.63;58.48;101979.69;5032598;28;20026;-62
2021/08/29 04:38:23;;;;;;;4.75;1.80;;;;;;;20.61;58.06;101970.16;5032600;28;20036;-63
2021/08/29 04:40:48;;;;;;;3.22;1.40;;;;;;;20.64;57.98;101976.09;5031363;28;20029;-63
2021/08/29 04:43:13;;;;;;;4.38;1.60;;;;;;;20.64;57.94;101970.78;5032514;28;20028;-64
2021/08/29 04:45:41;;;;;;;5.38;1.80;;;;;;;20.63;58.10;101968.22;5032613;28;20029;-64
2021/08/29 04:48:07;;;;;;;3.67;1.52;;;;;;;20.63;58.08;101969.09;5031759;28;20027;-63
2021/08/29 04:50:41;;;;;;;4.45;1.60;;;;;;;20.62;58.28;101971.84;5032551;28;20442;-63
2021/08/29 04:53:06;;;;;;;3.40;1.67;;;;;;;20.63;58.11;101976.16;5031848;28;20046;-62
2021/08/29 04:55:32;;;;;;;3.97;1.42;;;;;;;20.61;57.97;101975.44;5031552;28;20021;-63
2021/08/29 04:57:57;;;;;;;4.30;1.92;;;;;;;20.61;57.99;101984.22;5032361;28;20032;-63
2021/08/29 05:00:28;;;;;;;4.40;1.70;;;;;;;20.62;58.19;101983.28;5032318;28;20071;-63
2021/08/29 05:02:54;;;;;;;4.10;1.80;;;;;;;20.62;58.13;101979.78;5031166;28;20084;-63
2021/08/29 05:05:19;;;;;;;3.45;1.80;;;;;;;20.61;58.14;101978.09;5032266;28;20033;-63
2021/08/29 05:07:44;;;;;;;4.22;1.83;;;;;;;20.62;58.12;101974.50;5031959;28;20025;-64
2021/08/29 05:10:10;;;;;;;4.55;1.73;;;;;;;20.60;58.24;101982.56;5031471;28;20047;-63
2021/08/29 05:12:35;;;;;;;3.78;1.70;;;;;;;20.60;58.33;101973.75;5032217;28;20030;-63
2021/08/29 05:15:00;;;;;;;3.67;1.60;;;;;;;20.59;58.13;101972.91;5032078;28;20465;-63
2021/08/29 05:17:26;;;;;;;4.32;1.83;;;;;;;20.61;58.09;101978.09;5031375;28;20308;-63
2021/08/29 05:19:51;;;;;;;3.87;1.70;;;;;;;20.61;57.79;101978.09;5031848;28;20029;-63
2021/08/29 05:22:16;;;;;;;3.97;2.07;;;;;;;20.60;57.97;101977.25;5031433;28;20811;-64
2021/08/29 05:24:41;;;;;;;4.03;1.63;;;;;;;20.61;58.14;101981.56;5031967;28;20337;-63
2021/08/29 05:27:10;;;;;;;3.93;1.67;;;;;;;20.60;58.24;101971.09;5031906;28;20037;-62
2021/08/29 05:29:35;;;;;;;4.05;1.60;;;;;;;20.59;57.84;101977.38;5031618;28;20309;-63
2021/08/29 05:32:01;;;;;;;4.03;1.77;;;;;;;20.60;57.97;101973.75;5031752;28;20473;-64
2021/08/29 05:34:26;;;;;;;4.10;2.10;;;;;;;20.60;58.01;101979.91;5032137;28;20418;-63
2021/08/29 05:36:51;;;;;;;4.40;1.80;;;;;;;20.59;57.98;101980.03;5031033;28;20026;-63
2021/08/29 05:39:19;;;;;;;4.07;1.58;;;;;;;20.59;57.97;101982.66;5032016;28;20029;-63
2021/08/29 05:41:45;;;;;;;4.20;1.63;;;;;;;20.58;57.97;101986.25;5032130;28;20072;-63
2021/08/29 05:44:10;;;;;;;3.90;1.70;;;;;;;20.60;58.17;101992.28;5031496;28;20034;-62
2021/08/29 05:46:41;;;;;;;3.63;1.83;;;;;;;20.59;58.15;101990.63;5031936;28;20030;-63
2021/08/29 05:49:07;;;;;;;3.42;1.50;;;;;;;20.57;58.05;101990.72;5031719;28;20424;-62
2021/08/29 05:51:32;;;;;;;4.32;1.80;;;;;;;20.56;58.10;101988.19;5030876;28;20458;-64
2021/08/29 05:53:57;;;;;;;4.75;1.90;;;;;;;20.57;57.90;101985.44;5031778;28;20045;-62
2021/08/29 05:56:23;;;;;;;4.78;1.73;;;;;;;20.56;58.03;101988.19;5031618;28;20025;-61
2021/08/29 05:58:54;;;;;;;4.28;2.00;;;;;;;20.56;58.25;101985.53;5030775;28;20036;-64
2021/08/29 06:01:23;;;;;;;4.68;1.90;;;;;;;20.56;58.19;101982.88;5031986;28;20053;-63
2021/08/29 06:03:52;;;;;;;3.33;1.45;;;;;;;20.56;58.48;101986.38;5032060;28;20046;-63
2021/08/29 06:06:20;;;;;;;5.53;1.80;;;;;;;20.56;58.52;101981.06;5034750;28;20033;-64
2021/08/29 06:08:45;;;;;;;3.75;1.60;;;;;;;20.58;58.53;101987.09;5035557;28;20109;-63
2021/08/29 06:11:13;;;;;;;4.78;1.95;;;;;;;20.57;58.72;101982.78;5035780;28;20053;-63
2021/08/29 06:13:39;;;;;;;5.35;1.70;;;;;;;20.59;58.48;101982.66;5034702;28;20528;-62
2021/08/29 06:16:04;;;;;;;5.30;2.03;;;;;;;20.59;58.79;101980.84;5035069;28;20052;-61
2021/08/29 06:18:30;;;;;;;3.47;1.73;;;;;;;20.59;58.63;101969.44;5034734;28;20747;-63
2021/08/29 06:20:55;;;;;;;4.32;1.80;;;;;;;20.61;58.84;101967.50;5034646;28;20296;-64
2021/08/29 06:23:20;;;;;;;5.47;1.70;;;;;;;20.61;59.05;101976.28;5035439;28;20033;-63
2021/08/29 06:25:45;;;;;;;3.90;1.73;;;;;;;20.64;58.89;101980.56;5035081;28;20037;-64
2021/08/29 06:28:11;;;;;;;4.72;1.73;;;;;;;20.69;59.21;101980.22;5036106;28;20281;-64
2021/08/29 06:30:36;;;;;;;5.40;1.50;;;;;;;20.70;58.89;101980.09;5035672;28;20464;-65
2021/08/29 06:33:04;;;;;;;4.15;1.63;;;;;;;20.72;59.10;101980.81;5034899;28;20537;-65
2021/08/29 06:35:29;;;;;;;3.97;1.50;;;;;;;20.74;59.07;101978.06;5035182;28;20025;-65
2021/08/29 06:37:55;;;;;;;3.67;1.50;;;;;;;20.73;59.17;101982.53;5035008;28;20045;-64
2021/08/29 06:40:21;;;;;;;5.93;2.90;;;;;;;20.73;59.08;101979.88;5035264;28;20267;-64
2021/08/29 06:42:49;;;;;;;5.38;1.50;;;;;;;20.76;58.84;101979.63;5035553;28;20044;-63
2021/08/29 06:45:15;;;;;;;4.70;1.55;;;;;;;20.78;58.71;101979.53;5035238;28;20032;-62
2021/08/29 06:47:40;;;;;;;4.17;1.60;;;;;;;20.78;58.61;101974.22;5034301;28;20029;-63
2021/08/29 06:50:06;;;;;;;3.53;1.40;;;;;;;20.79;58.72;101974.13;5035294;28;20270;-62
2021/08/29 06:52:32;;;;;;;4.00;1.60;;;;;;;20.80;58.72;101977.59;5034780;28;20351;-64
2021/08/29 06:54:57;;;;;;;4.32;1.70;;;;;;;20.79;58.88;101973.25;5034196;28;20025;-63
2021/08/29 06:57:25;;;;;;;4.95;1.73;;;;;;;20.80;58.91;101980.25;5034874;28;20064;-65
2021/08/29 06:59:51;;;;;;;4.43;1.60;;;;;;;20.78;59.04;101971.59;5034549;28;20440;-64
2021/08/29 07:02:16;;;;;;;5.03;1.85;;;;;;;20.79;58.99;101982.06;5033959;28;20030;-64
2021/08/29 07:04:41;;;;;;;3.88;1.50;;;;;;;20.78;59.03;101977.72;5034773;28;20026;-66
2021/08/29 07:07:07;;;;;;;4.85;1.75;;;;;;;20.77;58.79;101962.75;5035014;28;20018;-64
2021/08/29 07:09:32;;;;;;;4.82;1.75;;;;;;;20.80;58.94;101974.94;5033859;28;20079;-63
2021/08/29 07:11:57;;;;;;;4.17;1.70;;;;;;;20.78;59.45;101966.28;5034396;28;20041;-62
2021/08/29 07:14:22;;;;;;;4.70;1.73;;;;;;;20.74;59.20;101965.66;5034274;28;20603;-62
2021/08/29 07:16:48;;;;;;;3.27;1.40;;;;;;;20.76;58.87;101968.19;5032173;28;20328;-62
2021/08/29 07:19:13;;;;;;;4.40;1.55;;;;;;;20.77;59.12;101975.19;5034304;28;20283;-63
2021/08/29 07:21:38;;;;;;;5.60;1.73;;;;;;;20.76;58.75;101973.47;5034334;28;20114;-62
2021/08/29 07:24:04;;;;;;;3.83;1.35;;;;;;;20.73;59.04;101968.41;5033282;28;20286;-65
2021/08/29 07:26:32;;;;;;;4.75;1.80;;;;;;;20.75;59.14;101977.94;5034363;28;20026;-62
2021/08/29 07:28:59;;;;;;;4.10;1.73;;;;;;;20.75;59.01;101974.47;5033697;28;20386;-62
2021/08/29 07:31:25;;;;;;;3.90;1.35;;;;;;;20.74;59.05;101973.59;5034610;28;20076;-62
2021/08/29 07:33:50;;;;;;;4.57;1.83;;;;;;;20.74;59.06;101976.25;5034270;28;20056;-65
2021/08/29 07:36:15;;;;;;;5.13;1.52;;;;;;;20.74;58.93;101963.00;5033828;28;20279;-65
2021/08/29 07:38:41;;;;;;;4.22;1.73;;;;;;;20.75;58.91;101972.66;5034576;28;20029;-63
2021/08/29 07:41:06;;;;;;;6.57;1.77;;;;;;;20.75;59.13;101963.88;5035059;28;20100;-65
2021/08/29 07:43:31;;;;;;;3.70;1.75;;;;;;;20.77;59.19;101967.22;5033993;28;20045;-65
2021/08/29 07:45:57;;;;;;;5.00;1.60;;;;;;;20.78;59.03;101964.47;5035239;28;20029;-64
2021/08/29 07:48:22;;;;;;;5.60;1.58;;;;;;;20.75;58.80;101964.69;5034203;28;20017;-63
2021/08/29 07:50:50;;;;;;;5.60;1.80;;;;;;;20.78;58.99;101966.28;5033298;28;20030;-66
2021/08/29 07:53:16;;;;;;;4.28;1.70;;;;;;;20.80;59.10;101964.34;5033853;28;20287;-67
2021/08/29 07:55:41;;;;;;;4.35;1.55;;;;;;;20.82;59.02;101965.94;5033931;28;20028;-67
2021/08/29 07:58:06;;;;;;;3.67;1.53;;;;;;;20.82;59.11;101965.06;5033013;28;20075;-63
2021/08/29 08:00:32;;;;;;;5.32;2.28;;;;;;;20.78;59.26;101950.38;5033290;28;20343;-62
2021/08/29 08:02:57;;;;;;;4.60;1.52;;;;;;;20.83;58.79;101964.13;5033106;28;20028;-65
2021/08/29 08:05:22;;;;;;;4.33;1.57;;;;;;;20.82;59.29;101954.47;5033431;28;20033;-65
2021/08/29 08:07:47;;;;;;;4.85;1.73;;;;;;;20.83;59.09;101961.47;5033064;28;20766;-65
2021/08/29 08:10:13;;;;;;;4.90;1.83;;;;;;;20.84;59.21;101957.88;5033291;28;20037;-65
2021/08/29 08:12:38;;;;;;;5.20;1.90;;;;;;;20.83;59.17;101961.47;5032085;28;20025;-61
2021/08/29 08:15:04;;;;;;;4.30;1.60;;;;;;;20.82;58.93;101955.34;5032330;28;20039;-61
2021/08/29 08:17:29;;;;;;;5.38;1.60;;;;;;;20.82;58.90;101970.38;5032914;28;20278;-61
2021/08/29 08:19:54;;;;;;;4.88;1.75;;;;;;;20.78;59.34;101955.69;5031541;28;20026;-62
2021/08/29 08:22:20;;;;;;;4.13;1.60;;;;;;;20.79;59.30;101960.00;5032789;28;20022;-62
2021/08/29 08:24:48;;;;;;;4.38;1.73;;;;;;;20.74;59.17;101954.22;5032324;28;20469;-61
2021/08/29 08:27:13;;;;;;;5.30;2.22;;;;;;;20.76;58.95;101960.22;5031552;28;20027;-61
2021/08/29 08:29:39;;;;;;;4.25;1.80;;;;;;;20.75;58.99;101958.56;5032806;28;20029;-60
2021/08/29 08:32:07;;;;;;;6.70;2.20;;;;;;;20.75;58.87;101958.56;5032367;28;20030;-61
2021/08/29 08:34:33;;;;;;;6.45;1.80;;;;;;;20.75;59.32;101958.56;5032715;28;20022;-61
2021/08/29 08:36:58;;;;;;;8.52;2.00;;;;;;;20.73;59.02;101958.69;5031891;28;20504;-61
2021/08/29 08:39:23;;;;;;;5.53;1.85;;;;;;;20.73;58.95;101963.09;5031862;28;20036;-60
2021/08/29 08:41:49;;;;;;;6.25;2.03;;;;;;;20.71;58.97;101968.56;5032116;28;20740;-61
2021/08/29 08:44:17;;;;;;;4.85;1.65;;;;;;;20.70;59.05;101971.31;5032326;28;20064;-61
2021/08/29 08:46:45;;;;;;;3.40;1.67;;;;;;;20.70;59.32;101973.97;5031933;28;20104;-61
2021/08/29 08:49:11;;;;;;;6.57;1.77;;;;;;;20.69;58.92;101970.44;5032312;28;20026;-61
2021/08/29 08:51:43;;;;;;;5.60;1.83;;;;;;;20.69;58.88;101970.44;5032399;28;20017;-61
2021/08/29 08:54:10;;;;;;;6.20;1.70;;;;;;;20.67;59.12;101969.72;5031795;28;20021;-61
2021/08/29 08:56:36;;;;;;;6.30;2.00;;;;;;;20.67;59.23;101968.91;5032667;28;20029;-61
2021/08/29 08:59:02;;;;;;;5.15;1.73;;;;;;;20.66;58.95;101975.97;5031882;28;20493;-61
2021/08/29 09:01:27;;;;;;;4.22;1.55;;;;;;;20.64;58.86;101970.78;5031563;28;20021;-60
2021/08/29 09:03:53;;;;;;;3.92;1.40;;;;;;;20.67;59.12;101968.91;5032248;28;20568;-60
2021/08/29 09:06:18;;;;;;;6.10;2.00;;;;;;;20.65;58.88;101972.50;5032310;28;20435;-62
2021/08/29 09:08:44;;;;;;;6.85;1.98;;;;;;;20.64;59.29;101970.78;5031329;28;20413;-61
2021/08/29 09:11:10;;;;;;;4.80;1.60;;;;;;;20.63;58.96;101963.78;5032242;28;20453;-60
2021/08/29 09:13:53;;;;;;;7.28;1.85;;;;;;;20.64;58.83;101967.31;5032018;28;20075;-61
2021/08/29 09:16:21;;;;;;;6.07;1.67;;;;;;;20.64;58.82;101962.84;5031929;28;20029;-60
2021/08/29 09:18:50;;;;;;;4.93;1.60;;;;;;;20.64;58.87;101968.13;5037475;28;20022;-61
2021/08/29 09:21:38;;;;;;;5.18;1.80;;;;;;;20.62;58.97;101958.59;5039782;28;20029;-61
2021/08/29 09:24:15;;;;;;;4.63;1.42;;;;;;;20.63;58.82;101969.09;5032443;28;20038;-60
2021/08/29 09:26:42;;;;;;;6.47;1.67;;;;;;;20.59;59.17;101962.31;5041249;28;20033;-61
2021/08/29 09:29:23;;;;;;;4.65;1.42;;;;;;;20.63;59.04;101970.88;5039684;28;20034;-61
2021/08/29 09:31:50;;;;;;;6.22;2.08;;;;;;;20.63;58.81;101968.22;5037524;28;20524;-61
2021/08/29 09:34:23;;;;;;;4.38;1.58;;;;;;;20.58;58.97;101954.47;5038824;28;20025;-61
2021/08/29 09:36:51;;;;;;;6.97;2.05;;;;;;;20.62;59.27;101969.19;5038373;28;20079;-61
2021/08/29 09:39:19;;;;;;;4.20;1.73;;;;;;;20.61;58.96;101965.69;5034034;28;20022;-61
2021/08/29 09:41:45;;;;;;;4.65;1.73;;;;;;;20.61;58.96;101964.84;5045130;28;20099;-61
2021/08/29 09:44:19;;;;;;;5.65;1.60;;;;;;;20.61;59.02;101963.03;5036711;28;20035;-62
2021/08/29 09:47:05;;;;;;;5.60;1.75;;;;;;;20.60;59.02;101969.31;5036599;28;20029;-61
2021/08/29 09:49:36;;;;;;;4.40;1.58;;;;;;;20.58;59.24;101962.44;5036833;28;20036;-61
2021/08/29 09:52:04;;;;;;;5.82;1.40;;;;;;;20.60;59.24;101964.00;5036934;28;20045;-62
2021/08/29 09:54:34;;;;;;;4.10;1.50;;;;;;;20.56;59.13;101959.06;5040615;28;20029;-62
2021/08/29 09:57:04;;;;;;;3.47;1.40;;;;;;;20.59;59.39;101969.44;5040240;28;20048;-62
2021/08/29 09:59:39;;;;;;;3.63;1.60;;;;;;;20.58;58.99;101959.78;5036939;28;20481;-61
2021/08/29 10:02:04;;;;;;;4.18;1.75;;;;;;;20.59;59.42;101961.47;5036962;28;20021;-61
2021/08/29 10:04:30;;;;;;;5.53;1.70;;;;;;;20.56;59.19;101957.25;5036356;28;20041;-61
2021/08/29 10:06:55;;;;;;;4.05;1.40;;;;;;;20.60;59.21;101963.16;5035850;28;20025;-61
2021/08/29 10:09:29;;;;;;;4.13;1.33;;;;;;;20.60;59.51;101965.78;5036007;28;20033;-61
2021/08/29 10:11:56;;;;;;;;;;;;;;;20.59;59.15;101964.97;5035147;28;20029;-61
2021/08/29 10:14:22;;;;;;;5.28;1.80;;;;;;;20.59;59.31;101959.66;5036078;28;19914;-61
2021/08/29 10:16:48;;;;;;;4.13;1.40;;;;;;;20.60;59.19;101957.84;5035370;28;20014;-61
2021/08/29 10:19:17;;;;;;;5.20;1.70;;;;;;;20.59;59.25;101954.38;5035176;28;20055;-61
2021/08/29 10:21:44;;;;;;;3.90;1.63;;;;;;;20.59;59.40;101948.25;5035640;28;20025;-61
2021/08/29 10:24:11;;;;;;;4.78;1.48;;;;;;;20.57;59.06;101944.84;5035723;28;20496;-62
2021/08/29 10:26:40;;;;;;;4.72;1.52;;;;;;;20.60;59.25;101949.91;5035223;28;20017;-61
2021/08/29 10:29:11;;;;;;;4.63;1.55;;;;;;;20.60;59.16;101949.91;5035253;28;20026;-61
2021/08/29 10:32:21;;;;;;;5.32;1.70;;;;;;;20.59;59.25;101946.44;5036315;28;20033;-61
2021/08/29 10:34:47;;;;;;;4.82;1.60;;;;;;;20.60;59.31;101936.66;5020201;28;20041;-61
2021/08/29 10:37:13;;;;;;;4.78;1.30;;;;;;;20.60;59.12;101942.84;5036522;28;20025;-60
2021/08/29 10:39:39;;;;;;;5.72;1.65;;;;;;;20.61;59.32;101943.66;5035279;28;20032;-62
2021/08/29 10:42:13;;;;;;;3.38;1.40;;;;;;;20.61;59.44;101943.66;5035743;28;20116;-60
2021/08/29 10:44:39;;;;;;;4.70;1.58;;;;;;;20.59;59.47;101938.47;5035401;28;20470;-61
2021/08/29 10:47:05;;;;;;;6.25;1.85;;;;;;;20.60;59.12;101937.53;5034378;28;20036;-60
2021/08/29 10:49:31;;;;;;;4.18;1.60;;;;;;;20.57;59.43;101935.09;5034468;28;20053;-61
2021/08/29 10:51:58;;;;;;;4.13;1.58;;;;;;;20.60;59.50;101936.66;5034368;28;20409;-61
2021/08/29 10:54:23;;;;;;;4.25;1.38;;;;;;;20.61;59.45;101933.06;5034139;28;20025;-60
2021/08/29 10:56:49;;;;;;;3.85;1.40;;;;;;;20.61;59.44;101928.59;5034608;28;20036;-60
2021/08/29 10:59:22;;;;;;;4.38;1.55;;;;;;;20.61;59.76;101927.78;5034545;28;20354;-61
2021/08/29 11:01:50;;;;;;;4.10;1.43;;;;;;;20.61;59.57;101928.59;5033497;28;20403;-60
2021/08/29 11:04:22;;;;;;;4.20;1.70;;;;;;;20.60;59.59;101919.00;5034782;28;20044;-60
2021/08/29 11:06:52;;;;;;;4.57;1.58;;;;;;;20.59;59.73;101919.94;5034487;28;20030;-61
2021/08/29 11:09:29;;;;;;;4.25;1.50;;;;;;;20.60;59.39;101919.00;5034853;28;20060;-61
2021/08/29 11:11:55;;;;;;;4.20;1.60;;;;;;;20.60;59.44;101913.69;5034171;28;20053;-61
2021/08/29 11:14:40;;;;;;;4.47;1.58;;;;;;;20.60;59.66;101915.47;5033819;28;20056;-60
2021/08/29 11:17:17;;;;;;;5.88;1.60;;;;;;;20.58;59.71;101907.66;5034324;28;20026;-61
2021/08/29 11:19:44;;;;;;;3.80;1.38;;;;;;;20.56;59.73;101908.75;5034574;28;20033;-61
2021/08/29 11:22:12;;;;;;;4.32;1.50;;;;;;;20.58;59.35;101910.28;5033649;28;20021;-61
2021/08/29 11:25:03;;;;;;;4.43;1.50;;;;;;;20.58;59.57;101912.09;5034285;28;20075;-61
2021/08/29 11:27:34;;;;;;;4.68;1.45;;;;;;;20.57;59.44;101911.28;5034154;28;20462;-61